createdAt,value
2018-12-16T04:13:58.351Z,98812.54
2018-12-16T04:16:30.684Z,98808.91
2018-12-16T04:19:02.873Z,98806.30
2018-12-16T04:21:35.144Z,98803.50
2018-12-16T04:24:07.356Z,98795.50
2018-12-16T04:26:39.804Z,98796.22
2018-12-16T04:29:11.748Z,98787.44
2018-12-16T04:31:43.959Z,98787.89
2018-12-16T04:34:15.958Z,98790.58
2018-12-16T04:36:48.106Z,98793.22
2018-12-16T04:39:20.381Z,98781.83
2018-12-16T04:41:52.338Z,98775.30
2018-12-16T04:44:24.311Z,98772.69
2018-12-16T04:46:56.410Z,98769.58
2018-12-16T04:49:28.573Z,98766.29
2018-12-16T04:52:00.911Z,98774.05
2018-12-16T04:54:33.060Z,98771.48
2018-12-16T04:57:05.375Z,98768.27
2018-12-16T04:59:38.551Z,98778.02
2018-12-16T05:02:10.825Z,98773.98
2018-12-16T05:04:42.951Z,98776.08
2018-12-16T05:07:15.104Z,98771.37
2018-12-16T05:09:47.214Z,98771.34
2018-12-16T05:12:19.250Z,98773.45
2018-12-16T05:14:50.929Z,98764.02
2018-12-16T05:17:23.354Z,98756.58
2018-12-16T05:19:55.386Z,98762.75
2018-12-16T05:22:27.473Z,98756.61
2018-12-16T05:24:59.589Z,98763.17
2018-12-16T05:27:31.448Z,98757.98
2018-12-16T05:30:03.539Z,98758.23
2018-12-16T05:32:35.617Z,98751.26
2018-12-16T05:35:08.155Z,98753.41
2018-12-16T05:37:40.204Z,98755.23
2018-12-16T05:40:12.223Z,98757.55
2018-12-16T05:42:44.331Z,98758.74
2018-12-16T05:45:16.438Z,98761.05
2018-12-16T05:47:48.300Z,98754.81
2018-12-16T05:50:20.258Z,98758.66
2018-12-16T05:52:52.263Z,98759.48
2018-12-16T05:55:24.657Z,98761.55
2018-12-16T05:57:56.691Z,98761.18
2018-12-16T06:00:28.729Z,98752.38
2018-12-16T06:03:00.537Z,98751.16
2018-12-16T06:05:32.852Z,98756.19
2018-12-16T06:08:04.888Z,98756.48
2018-12-16T06:10:37.094Z,98760.66
2018-12-16T06:13:08.844Z,98759.22
2018-12-16T06:15:40.913Z,98761.55
2018-12-16T06:18:12.871Z,98753.13
2018-12-16T06:20:45.434Z,98752.38
2018-12-16T06:23:18.424Z,98757.77
2018-12-16T06:25:50.375Z,98764.98
2018-12-16T06:28:22.610Z,98759.53
2018-12-16T06:30:56.063Z,98763.20
2018-12-16T06:33:28.112Z,98762.17
2018-12-16T06:36:00.994Z,98764.03
2018-12-16T06:38:34.468Z,98764.44
2018-12-16T06:41:07.562Z,98762.75
2018-12-16T06:43:40.687Z,98764.95
2018-12-16T06:46:13.343Z,98771.27
2018-12-16T06:48:46.593Z,98762.97
2018-12-16T06:51:19.413Z,98764.09
2018-12-16T06:53:52.637Z,98772.66
2018-12-16T06:56:24.645Z,98770.72
2018-12-16T06:58:56.562Z,98771.48
2018-12-16T07:01:28.715Z,98768.13
2018-12-16T07:04:00.730Z,98764.40
2018-12-16T07:06:32.855Z,98771.23
2018-12-16T07:09:06.108Z,98767.98
2018-12-16T07:11:38.416Z,98765.44
2018-12-16T07:14:10.540Z,98767.16
2018-12-16T07:16:42.858Z,98760.63
2018-12-16T07:19:15.066Z,98766.42
2018-12-16T07:21:47.240Z,98761.91
2018-12-16T07:24:19.285Z,98767.88
2018-12-16T07:26:52.030Z,98767.63
2018-12-16T07:29:25.664Z,98762.50
2018-12-16T07:31:57.659Z,98756.67
2018-12-16T07:34:31.297Z,98758.40
2018-12-16T07:37:04.298Z,98754.59
2018-12-16T07:39:36.831Z,98759.52
2018-12-16T07:42:09.045Z,98763.38
2018-12-16T07:44:42.177Z,98764.86
2018-12-16T07:47:14.877Z,98766.73
2018-12-16T07:49:48.141Z,98759.16
2018-12-16T07:52:20.992Z,98756.39
2018-12-16T07:54:53.956Z,98752.73
2018-12-16T07:57:25.906Z,98752.95
2018-12-16T07:59:58.136Z,98751.25
2018-12-16T08:02:30.889Z,98756.44
2018-12-16T08:05:03.238Z,98760.16
2018-12-16T08:07:36.205Z,98761.23
2018-12-16T08:10:09.772Z,98766.20
2018-12-16T08:12:42.040Z,98756.73
2018-12-16T08:15:14.275Z,98763.58
2018-12-16T08:17:47.843Z,98754.17
2018-12-16T08:20:21.703Z,98758.89
2018-12-16T08:22:54.301Z,98760.02
2018-12-16T08:25:27.853Z,98760.14
2018-12-16T08:28:00.946Z,98757.47
2018-12-16T08:30:33.666Z,98758.52
2018-12-16T08:33:06.539Z,98759.80
2018-12-16T08:35:38.677Z,98758.13
2018-12-16T08:38:10.921Z,98763.80
2018-12-16T08:40:44.444Z,98762.73
2018-12-16T08:43:37.907Z,98772.39
2018-12-16T08:46:15.835Z,98766.81
2018-12-16T08:48:47.926Z,98770.68
2018-12-16T08:51:20.169Z,98772.78
2018-12-16T08:53:52.495Z,98777.12
2018-12-16T08:56:24.598Z,98776.98
2018-12-16T08:58:57.136Z,98783.16
2018-12-16T09:01:29.436Z,98788.45
2018-12-16T09:04:01.685Z,98793.20
2018-12-16T09:06:33.853Z,98797.42
2018-12-16T09:09:07.619Z,98796.19
2018-12-16T09:11:39.983Z,98797.01
2018-12-16T09:14:12.238Z,98798.50
2018-12-16T09:16:44.302Z,98797.27
2018-12-16T09:19:16.255Z,98807.78
2018-12-16T09:21:48.441Z,98802.36
2018-12-16T09:24:20.544Z,98806.19
2018-12-16T09:26:52.870Z,98810.41
2018-12-16T09:29:25.379Z,98808.28
2018-12-16T09:31:57.734Z,98816.53
2018-12-16T09:34:29.611Z,98818.03
2018-12-16T09:37:01.748Z,98817.75
2018-12-16T09:39:33.668Z,98813.23
2018-12-16T09:42:05.930Z,98811.28
2018-12-16T09:44:37.992Z,98807.78
2018-12-16T09:47:10.054Z,98802.06
2018-12-16T09:49:41.963Z,98812.71
2018-12-16T09:52:14.505Z,98813.38
2018-12-16T09:54:46.512Z,98813.48
2018-12-16T09:57:18.986Z,98816.06
2018-12-16T09:59:51.321Z,98824.16
2018-12-16T10:02:23.752Z,98818.87
2018-12-16T10:04:56.016Z,98820.31
2018-12-16T10:07:27.990Z,98822.64
2018-12-16T10:10:00.069Z,98819.64
2018-12-16T10:12:32.164Z,98821.36
2018-12-16T10:15:04.917Z,98825.94
2018-12-16T10:17:37.623Z,98833.19
2018-12-16T10:20:11.040Z,98824.50
2018-12-16T10:22:43.495Z,98830.03
2018-12-16T10:25:15.704Z,98821.96
2018-12-16T10:27:48.344Z,98830.95
2018-12-16T10:30:21.377Z,98835.08
2018-12-16T10:33:06.296Z,98825.74
2018-12-16T10:35:49.205Z,98825.70
2018-12-16T10:38:43.530Z,98835.25
2018-12-16T10:41:30.238Z,98836.23
2018-12-16T10:44:12.113Z,98833.91
2018-12-16T10:50:07.263Z,98832.77
2018-12-16T10:52:39.647Z,98833.31
2018-12-16T10:55:13.799Z,98833.84
2018-12-16T10:57:45.911Z,98834.65
2018-12-16T11:00:17.789Z,98833.82
2018-12-16T11:02:49.856Z,98828.30
2018-12-16T11:05:22.571Z,98827.37
2018-12-16T11:07:55.252Z,98836.02
2018-12-16T11:10:27.347Z,98834.48
2018-12-16T11:12:59.735Z,98845.23
2018-12-16T11:15:31.862Z,98842.69
2018-12-16T11:18:04.194Z,98831.81
2018-12-16T11:20:37.602Z,98838.81
2018-12-16T11:23:09.678Z,98836.96
2018-12-16T11:25:42.314Z,98836.02
2018-12-16T11:28:14.692Z,98851.58
2018-12-16T11:30:47.991Z,98848.80
2018-12-16T11:33:20.024Z,98855.50
2018-12-16T11:35:52.952Z,98859.69
2018-12-16T11:38:25.273Z,98859.51
2018-12-16T11:40:58.078Z,98855.39
2018-12-16T11:43:30.294Z,98854.03
2018-12-16T11:46:02.601Z,98853.03
2018-12-16T11:48:34.603Z,98859.28
2018-12-16T11:51:07.214Z,98861.41
2018-12-16T11:53:39.113Z,98858.94
2018-12-16T11:56:11.144Z,98863.48
2018-12-16T11:58:43.241Z,98863.46
2018-12-16T12:01:15.399Z,98868.09
2018-12-16T12:03:47.795Z,98866.34
2018-12-16T12:06:19.923Z,98876.42
2018-12-16T12:08:52.357Z,98880.02
2018-12-16T12:11:25.140Z,98878.16
2018-12-16T12:13:58.200Z,98879.39
2018-12-16T12:16:30.516Z,98881.67
2018-12-16T12:19:02.653Z,98881.06
2018-12-16T12:21:35.164Z,98875.33
2018-12-16T12:24:08.762Z,98886.41
2018-12-16T12:26:41.015Z,98881.27
2018-12-16T12:29:13.293Z,98875.34
2018-12-16T12:31:45.391Z,98879.94
2018-12-16T12:34:18.429Z,98878.29
2018-12-16T12:36:51.357Z,98885.71
2018-12-16T12:39:23.916Z,98883.75
2018-12-16T12:41:56.589Z,98883.04
2018-12-16T12:44:29.998Z,98885.39
2018-12-16T12:47:02.440Z,98884.25
2018-12-16T12:49:34.961Z,98881.07
2018-12-16T12:52:07.586Z,98887.55
2018-12-16T12:54:40.890Z,98880.75
2018-12-16T12:57:13.999Z,98889.70
2018-12-16T13:00:00.548Z,98888.66
2018-12-16T13:02:41.168Z,98890.52
2018-12-16T13:05:14.754Z,98883.73
2018-12-16T13:07:47.545Z,98877.17
2018-12-16T13:10:20.431Z,98877.04
2018-12-16T13:12:52.685Z,98879.28
2018-12-16T13:15:25.671Z,98878.39
2018-12-16T13:17:57.853Z,98878.59
2018-12-16T13:20:30.073Z,98871.59
2018-12-16T13:23:02.564Z,98880.11
2018-12-16T13:25:50.353Z,98884.33
2018-12-16T13:28:22.853Z,98888.92
2018-12-16T13:30:55.161Z,98884.59
2018-12-16T13:33:27.578Z,98886.14
2018-12-16T13:36:00.054Z,98880.48
2018-12-16T13:38:32.517Z,98880.70
2018-12-16T13:41:06.163Z,98877.35
2018-12-16T13:43:38.595Z,98872.16
2018-12-16T13:46:10.756Z,98876.63
2018-12-16T13:48:43.163Z,98878.16
2018-12-16T13:51:16.270Z,98877.33
2018-12-16T13:53:48.943Z,98882.02
2018-12-16T13:56:21.326Z,98870.70
2018-12-16T13:58:53.859Z,98874.91
2018-12-16T14:01:26.096Z,98872.67
2018-12-16T14:03:59.513Z,98868.13
2018-12-16T14:06:31.981Z,98854.78
2018-12-16T14:09:05.213Z,98853.66
2018-12-16T14:11:38.478Z,98854.97
2018-12-16T14:14:10.866Z,98858.84
2018-12-16T14:16:43.295Z,98857.22
2018-12-16T14:19:15.992Z,98844.67
2018-12-16T14:21:48.380Z,98840.92
2018-12-16T14:24:21.027Z,98850.95
2018-12-16T14:26:53.224Z,98844.55
2018-12-16T14:29:26.259Z,98844.83
2018-12-16T14:31:58.235Z,98851.24
2018-12-16T14:34:30.166Z,98865.48
2018-12-16T14:37:02.281Z,98858.59
2018-12-16T14:39:34.697Z,98852.13
2018-12-16T14:42:06.856Z,98845.84
2018-12-16T14:44:39.077Z,98840.68
2018-12-16T14:47:11.348Z,98836.02
2018-12-16T14:49:43.360Z,98843.36
2018-12-16T14:52:15.408Z,98845.34
2018-12-16T14:54:48.691Z,98835.88
2018-12-16T14:57:21.784Z,98837.28
2018-12-16T14:59:55.585Z,98840.13
2018-12-16T15:02:27.682Z,98838.81
2018-12-16T15:05:00.640Z,98829.34
2018-12-16T15:07:33.145Z,98829.48
2018-12-16T15:10:06.781Z,98823.52
2018-12-16T15:12:38.938Z,98825.08
2018-12-16T15:15:11.385Z,98826.95
2018-12-16T15:17:45.448Z,98823.57
2018-12-16T15:20:17.739Z,98827.73
2018-12-16T15:22:50.179Z,98828.39
2018-12-16T15:25:22.663Z,98823.02
2018-12-16T15:27:54.704Z,98823.75
2018-12-16T15:30:26.963Z,98827.60
2018-12-16T15:32:59.151Z,98828.44
2018-12-16T15:35:31.685Z,98821.59
2018-12-16T15:38:04.208Z,98822.52
2018-12-16T15:40:36.509Z,98822.61
2018-12-16T15:43:08.942Z,98832.84
2018-12-16T15:45:41.639Z,98822.61
2018-12-16T15:48:14.271Z,98820.67
2018-12-16T15:50:47.874Z,98824.16
2018-12-16T15:53:20.165Z,98817.64
2018-12-16T15:55:52.347Z,98820.34
2018-12-16T15:58:24.711Z,98814.52
2018-12-16T16:00:56.964Z,98818.94
2018-12-16T16:03:29.097Z,98811.91
2018-12-16T16:06:01.714Z,98807.17
2018-12-16T16:08:33.657Z,98810.63
2018-12-16T16:11:05.820Z,98814.06
2018-12-16T16:13:38.413Z,98816.25
2018-12-16T16:16:10.888Z,98816.08
2018-12-16T16:18:43.741Z,98820.36
2018-12-16T16:21:16.338Z,98815.17
2018-12-16T16:23:48.662Z,98814.52
2018-12-16T16:26:20.433Z,98812.78
2018-12-16T16:28:52.939Z,98806.22
2018-12-16T16:31:25.515Z,98803.66
2018-12-16T16:33:57.691Z,98799.28
2018-12-16T16:36:29.920Z,98803.09
2018-12-16T16:39:03.806Z,98801.48
2018-12-16T16:41:36.426Z,98801.40
2018-12-16T16:44:08.726Z,98801.70
2018-12-16T16:46:41.195Z,98808.66
2018-12-16T16:49:13.495Z,98799.00
2018-12-16T16:51:45.905Z,98801.48
2018-12-16T16:54:18.036Z,98800.48
2018-12-16T16:56:50.413Z,98792.67
2018-12-16T16:59:22.760Z,98793.00
2018-12-16T17:01:55.430Z,98800.38
2018-12-16T17:04:27.987Z,98790.19
2018-12-16T17:07:00.556Z,98798.50
2018-12-16T17:09:32.604Z,98806.44
2018-12-16T17:12:04.842Z,98812.37
2018-12-16T17:14:36.740Z,98805.48
2018-12-16T17:17:08.864Z,98800.56
2018-12-16T17:19:41.167Z,98803.23
2018-12-16T17:22:13.455Z,98804.02
2018-12-16T17:24:45.748Z,98799.61
2018-12-16T17:29:48.834Z,98805.25
2018-12-16T17:32:21.366Z,98809.94
2018-12-16T17:34:54.067Z,98813.51
2018-12-16T17:37:26.334Z,98816.11
2018-12-16T17:39:58.530Z,98810.52
2018-12-16T17:42:30.846Z,98819.28
2018-12-16T17:45:02.994Z,98816.80
2018-12-16T17:47:35.547Z,98820.55
2018-12-16T17:50:07.819Z,98825.88
2018-12-16T17:52:40.124Z,98817.13
2018-12-16T17:55:12.459Z,98820.23
2018-12-16T17:57:44.696Z,98821.36
2018-12-16T18:00:17.494Z,98814.16
2018-12-16T18:02:50.276Z,98816.27
2018-12-16T18:05:22.679Z,98815.08
2018-12-16T18:07:55.659Z,98813.61
2018-12-16T18:10:28.545Z,98818.19
2018-12-16T18:13:01.810Z,98817.50
2018-12-16T18:15:33.940Z,98807.41
2018-12-16T18:18:06.534Z,98803.92
2018-12-16T18:20:39.038Z,98806.39
2018-12-16T18:23:11.637Z,98803.46
2018-12-16T18:25:43.929Z,98808.28
2018-12-16T18:28:16.221Z,98806.63
2018-12-16T18:30:48.505Z,98808.78
2018-12-16T18:33:21.175Z,98812.04
2018-12-16T18:35:53.599Z,98819.02
2018-12-16T18:38:26.201Z,98819.79
2018-12-16T18:40:58.525Z,98812.95
2018-12-16T18:43:30.754Z,98814.09
2018-12-16T18:46:03.426Z,98804.73
2018-12-16T18:48:35.860Z,98798.45
2018-12-16T18:51:08.467Z,98795.92
2018-12-16T18:53:40.907Z,98793.91
2018-12-16T18:56:12.795Z,98792.94
2018-12-16T18:58:45.215Z,98796.56
2018-12-16T19:01:17.747Z,98789.95
2018-12-16T19:03:49.532Z,98784.31
2018-12-16T19:06:22.479Z,98787.25
2018-12-16T19:08:54.822Z,98787.95
2018-12-16T19:11:27.752Z,98790.25
2018-12-16T19:14:00.061Z,98790.76
2018-12-16T19:16:32.642Z,98787.83
2018-12-16T19:19:05.594Z,98786.19
2018-12-16T19:21:38.115Z,98779.25
2018-12-16T19:24:10.639Z,98780.58
2018-12-16T19:26:44.053Z,98781.13
2018-12-16T19:29:17.540Z,98776.73
2018-12-16T19:31:51.085Z,98779.72
2018-12-16T19:34:23.961Z,98769.08
2018-12-16T19:36:56.744Z,98769.85
2018-12-16T19:39:29.289Z,98763.49
2018-12-16T19:42:02.203Z,98763.06
2018-12-16T19:44:36.018Z,98754.95
2018-12-16T19:47:08.529Z,98759.18
2018-12-16T19:49:41.177Z,98759.09
2018-12-16T19:52:14.261Z,98762.58
2018-12-16T19:54:47.044Z,98760.80
2018-12-16T19:57:19.881Z,98762.53
2018-12-16T19:59:52.813Z,98758.64
2018-12-16T20:02:25.188Z,98758.17
2018-12-16T20:04:58.394Z,98755.27
2018-12-16T20:07:32.096Z,98752.56
2018-12-16T20:10:04.753Z,98752.48
2018-12-16T20:12:37.665Z,98755.78
2018-12-16T20:15:10.383Z,98756.60
2018-12-16T20:17:43.126Z,98753.38
2018-12-16T20:20:15.385Z,98759.72
2018-12-16T20:25:33.862Z,98756.73
2018-12-16T20:28:06.284Z,98762.22
2018-12-16T20:30:38.598Z,98771.86
2018-12-16T20:33:11.035Z,98774.16
2018-12-16T20:35:44.030Z,98775.36
2018-12-16T20:38:16.111Z,98775.98
2018-12-16T20:40:48.277Z,98778.41
2018-12-16T20:43:20.059Z,98778.97
2018-12-16T20:45:52.421Z,98778.99
2018-12-16T20:48:24.505Z,98779.03
2018-12-16T20:50:56.734Z,98775.73
2018-12-16T20:53:29.393Z,98773.84
2018-12-16T20:56:01.715Z,98776.44
2018-12-16T20:58:34.260Z,98773.99
2018-12-16T21:01:06.281Z,98782.98
2018-12-16T21:03:37.944Z,98784.16
2018-12-16T21:06:09.989Z,98781.23
2018-12-16T21:08:42.256Z,98782.95
2018-12-16T21:11:14.527Z,98776.31
2018-12-16T21:13:46.355Z,98776.13
2018-12-16T21:16:18.291Z,98778.92
2018-12-16T21:18:51.263Z,98777.77
2018-12-16T21:21:23.178Z,98783.09
2018-12-16T21:23:55.064Z,98786.44
2018-12-16T21:26:27.043Z,98793.33
2018-12-16T21:28:58.935Z,98789.02
2018-12-16T21:31:30.784Z,98793.40
2018-12-16T21:34:02.835Z,98796.95
2018-12-16T21:36:34.875Z,98795.80
2018-12-16T21:39:07.923Z,98793.72
2018-12-16T21:41:40.173Z,98794.88
2018-12-16T21:44:12.077Z,98789.70
2018-12-16T21:46:43.973Z,98788.48
2018-12-16T21:49:16.017Z,98793.05
2018-12-16T21:51:47.736Z,98786.55
2018-12-16T21:54:19.617Z,98791.86
2018-12-16T21:56:51.655Z,98790.25
2018-12-16T21:59:23.883Z,98795.59
2018-12-16T22:01:55.852Z,98794.63
2018-12-16T22:04:27.961Z,98804.27
2018-12-16T22:06:59.773Z,98805.81
2018-12-16T22:09:31.787Z,98801.33
2018-12-16T22:12:03.810Z,98803.64
2018-12-16T22:14:35.753Z,98795.98
2018-12-16T22:17:07.661Z,98800.50
2018-12-16T22:19:39.593Z,98799.28
2018-12-16T22:22:11.527Z,98799.58
2018-12-16T22:24:44.227Z,98806.54
2018-12-16T22:27:16.070Z,98796.95
2018-12-16T22:29:48.203Z,98805.22
2018-12-16T22:32:20.325Z,98804.97
2018-12-16T22:34:52.303Z,98809.31
2018-12-16T22:37:24.120Z,98813.19
2018-12-16T22:39:55.980Z,98814.30
2018-12-16T22:42:27.962Z,98813.22
2018-12-16T22:44:59.976Z,98817.44
2018-12-16T22:47:31.903Z,98807.92
2018-12-16T22:50:03.765Z,98802.16
2018-12-16T22:52:36.252Z,98810.47
2018-12-16T22:55:08.399Z,98813.30
2018-12-16T22:57:46.902Z,98811.99
2018-12-16T23:00:16.010Z,98811.55
2018-12-16T23:02:48.663Z,98818.20
2018-12-16T23:05:20.609Z,98813.22
2018-12-16T23:07:53.032Z,98809.58
2018-12-16T23:10:25.580Z,98812.63
2018-12-16T23:12:57.533Z,98816.86
2018-12-16T23:15:29.640Z,98819.78
2018-12-16T23:18:01.616Z,98823.33
2018-12-16T23:20:33.492Z,98820.52
2018-12-16T23:23:05.493Z,98827.34
2018-12-16T23:25:37.499Z,98825.91
2018-12-16T23:28:09.445Z,98829.22
2018-12-16T23:30:41.439Z,98837.55
2018-12-16T23:33:13.357Z,98835.78
2018-12-16T23:35:45.487Z,98837.27
2018-12-16T23:38:17.389Z,98837.52
2018-12-16T23:40:49.293Z,98833.95
2018-12-16T23:43:21.279Z,98839.41
2018-12-16T23:45:53.166Z,98837.66
2018-12-16T23:48:25.155Z,98845.13
2018-12-16T23:50:57.876Z,98842.07
2018-12-16T23:53:29.679Z,98842.97
2018-12-16T23:56:01.646Z,98841.01
2018-12-16T23:58:33.948Z,98846.48
